sensor_id;sensor_type;location;lat;lon;timestamp;temperature;humidity
15455;DHT22;21057;51.024;7.540;2023-04-25T00:00:03;7.00;99.90
15455;DHT22;21057;51.024;7.540;2023-04-25T00:02:32;6.90;99.90
15455;DHT22;21057;51.024;7.540;2023-04-25T00:05:07;6.90;99.90
15455;DHT22;21057;51.024;7.540;2023-04-25T00:07:34;6.80;99.90
15455;DHT22;21057;51.024;7.540;2023-04-25T00:10:01;6.80;99.90
15455;DHT22;21057;51.024;7.540;2023-04-25T00:12:30;6.90;99.90
15455;DHT22;21057;51.024;7.540;2023-04-25T00:14:59;6.80;99.90
15455;DHT22;21057;51.024;7.540;2023-04-25T00:17:26;6.70;99.90
15455;DHT22;21057;51.024;7.540;2023-04-25T00:19:53;6.70;99.90
15455;DHT22;21057;51.024;7.540;2023-04-25T00:22:20;6.80;99.90
15455;DHT22;21057;51.024;7.540;2023-04-25T00:24:48;6.70;99.90
15455;DHT22;21057;51.024;7.540;2023-04-25T00:27:17;6.70;99.90
15455;DHT22;21057;51.024;7.540;2023-04-25T00:29:53;6.70;99.90
15455;DHT22;21057;51.024;7.540;2023-04-25T00:32:24;6.60;99.90
15455;DHT22;21057;51.024;7.540;2023-04-25T00:34:51;6.60;99.90
15455;DHT22;21057;51.024;7.540;2023-04-25T00:37:18;6.70;99.90
15455;DHT22;21057;51.024;7.540;2023-04-25T00:39:45;6.70;99.90
15455;DHT22;21057;51.024;7.540;2023-04-25T00:42:12;6.60;99.90
15455;DHT22;21057;51.024;7.540;2023-04-25T00:44:39;6.70;99.90
15455;DHT22;21057;51.024;7.540;2023-04-25T00:47:11;6.70;99.90
15455;DHT22;21057;51.024;7.540;2023-04-25T00:49:38;6.60;99.90
15455;DHT22;21057;51.024;7.540;2023-04-25T00:52:05;6.50;99.90
15455;DHT22;21057;51.024;7.540;2023-04-25T00:54:32;6.40;99.90
15455;DHT22;21057;51.024;7.540;2023-04-25T00:56:59;6.40;99.90
15455;DHT22;21057;51.024;7.540;2023-04-25T00:59:28;6.40;99.90
15455;DHT22;21057;51.024;7.540;2023-04-25T01:01:55;6.50;99.90
15455;DHT22;21057;51.024;7.540;2023-04-25T01:04:29;6.50;99.90
15455;DHT22;21057;51.024;7.540;2023-04-25T01:06:56;6.50;99.90
15455;DHT22;21057;51.024;7.540;2023-04-25T01:09:24;6.40;99.90
15455;DHT22;21057;51.024;7.540;2023-04-25T01:11:51;6.50;99.90
15455;DHT22;21057;51.024;7.540;2023-04-25T01:14:26;6.60;99.90
15455;DHT22;21057;51.024;7.540;2023-04-25T01:16:53;6.80;99.90
15455;DHT22;21057;51.024;7.540;2023-04-25T01:19:23;6.90;99.90
15455;DHT22;21057;51.024;7.540;2023-04-25T01:21:53;6.90;99.90
15455;DHT22;21057;51.024;7.540;2023-04-25T01:24:20;6.90;99.90
15455;DHT22;21057;51.024;7.540;2023-04-25T01:26:47;6.90;99.90
15455;DHT22;21057;51.024;7.540;2023-04-25T01:29:16;6.90;99.90
15455;DHT22;21057;51.024;7.540;2023-04-25T01:31:44;7.10;99.90
15455;DHT22;21057;51.024;7.540;2023-04-25T01:34:11;7.10;99.90
15455;DHT22;21057;51.024;7.540;2023-04-25T01:36:38;7.10;99.90
15455;DHT22;21057;51.024;7.540;2023-04-25T01:39:07;7.10;99.90
15455;DHT22;21057;51.024;7.540;2023-04-25T01:41:34;7.00;99.90
15455;DHT22;21057;51.024;7.540;2023-04-25T01:44:01;6.90;99.90
15455;DHT22;21057;51.024;7.540;2023-04-25T01:46:34;7.00;99.90
15455;DHT22;21057;51.024;7.540;2023-04-25T01:49:07;7.00;99.90
15455;DHT22;21057;51.024;7.540;2023-04-25T01:51:34;7.00;99.90
15455;DHT22;21057;51.024;7.540;2023-04-25T01:54:01;7.20;99.90
15455;DHT22;21057;51.024;7.540;2023-04-25T01:56:32;7.20;99.90
15455;DHT22;21057;51.024;7.540;2023-04-25T01:58:59;7.20;99.90
15455;DHT22;21057;51.024;7.540;2023-04-25T02:01:26;7.20;99.90
15455;DHT22;21057;51.024;7.540;2023-04-25T02:03:58;7.10;99.90
15455;DHT22;21057;51.024;7.540;2023-04-25T02:06:26;7.10;99.90
15455;DHT22;21057;51.024;7.540;2023-04-25T02:08:53;7.20;99.90
15455;DHT22;21057;51.024;7.540;2023-04-25T02:11:20;7.30;99.90
15455;DHT22;21057;51.024;7.540;2023-04-25T02:13:48;7.30;99.90
15455;DHT22;21057;51.024;7.540;2023-04-25T02:16:15;7.20;99.90
15455;DHT22;21057;51.024;7.540;2023-04-25T02:18:42;7.10;99.90
15455;DHT22;21057;51.024;7.540;2023-04-25T02:21:10;7.10;99.90
15455;DHT22;21057;51.024;7.540;2023-04-25T02:23:37;7.10;99.90
15455;DHT22;21057;51.024;7.540;2023-04-25T02:26:04;7.10;99.90
15455;DHT22;21057;51.024;7.540;2023-04-25T02:28:31;7.20;99.90
15455;DHT22;21057;51.024;7.540;2023-04-25T02:31:00;7.30;99.90
15455;DHT22;21057;51.024;7.540;2023-04-25T02:33:26;7.30;99.90
15455;DHT22;21057;51.024;7.540;2023-04-25T02:35:53;7.20;99.90
15455;DHT22;21057;51.024;7.540;2023-04-25T02:38:20;7.30;99.90
15455;DHT22;21057;51.024;7.540;2023-04-25T02:40:48;7.30;99.90
15455;DHT22;21057;51.024;7.540;2023-04-25T02:43:15;7.40;99.90
15455;DHT22;21057;51.024;7.540;2023-04-25T02:45:42;7.40;99.90
15455;DHT22;21057;51.024;7.540;2023-04-25T02:48:10;7.50;99.90
15455;DHT22;21057;51.024;7.540;2023-04-25T02:50:38;7.40;99.90
15455;DHT22;21057;51.024;7.540;2023-04-25T02:53:05;7.40;99.90
15455;DHT22;21057;51.024;7.540;2023-04-25T02:55:31;7.40;99.90
15455;DHT22;21057;51.024;7.540;2023-04-25T02:58:00;7.30;99.90
15455;DHT22;21057;51.024;7.540;2023-04-25T03:00:33;7.30;99.90
15455;DHT22;21057;51.024;7.540;2023-04-25T03:03:00;7.10;99.90
15455;DHT22;21057;51.024;7.540;2023-04-25T03:05:28;7.30;99.90
15455;DHT22;21057;51.024;7.540;2023-04-25T03:08:06;7.30;99.90
15455;DHT22;21057;51.024;7.540;2023-04-25T03:10:42;7.40;99.90
15455;DHT22;21057;51.024;7.540;2023-04-25T03:13:09;7.30;99.90
15455;DHT22;21057;51.024;7.540;2023-04-25T03:15:41;7.30;99.90
15455;DHT22;21057;51.024;7.540;2023-04-25T03:18:07;7.30;99.90
15455;DHT22;21057;51.024;7.540;2023-04-25T03:20:35;7.40;99.90
15455;DHT22;21057;51.024;7.540;2023-04-25T03:23:06;7.50;99.90
15455;DHT22;21057;51.024;7.540;2023-04-25T03:25:33;7.50;99.90
15455;DHT22;21057;51.024;7.540;2023-04-25T03:28:00;7.50;99.90
15455;DHT22;21057;51.024;7.540;2023-04-25T03:30:27;7.40;99.90
15455;DHT22;21057;51.024;7.540;2023-04-25T03:32:54;7.50;99.90
15455;DHT22;21057;51.024;7.540;2023-04-25T03:35:20;7.40;99.90
15455;DHT22;21057;51.024;7.540;2023-04-25T03:37:58;7.40;99.90
15455;DHT22;21057;51.024;7.540;2023-04-25T03:40:27;7.50;99.90
15455;DHT22;21057;51.024;7.540;2023-04-25T03:42:54;7.50;99.90
15455;DHT22;21057;51.024;7.540;2023-04-25T03:45:21;7.60;99.90
15455;DHT22;21057;51.024;7.540;2023-04-25T03:47:47;7.50;99.90
15455;DHT22;21057;51.024;7.540;2023-04-25T03:50:15;7.30;99.90
15455;DHT22;21057;51.024;7.540;2023-04-25T03:52:43;7.20;99.90
15455;DHT22;21057;51.024;7.540;2023-04-25T03:55:11;7.20;99.90
15455;DHT22;21057;51.024;7.540;2023-04-25T03:57:38;7.20;99.90
15455;DHT22;21057;51.024;7.540;2023-04-25T04:00:18;7.10;99.90
15455;DHT22;21057;51.024;7.540;2023-04-25T04:02:45;7.00;99.90
15455;DHT22;21057;51.024;7.540;2023-04-25T04:05:35;7.00;99.90
15455;DHT22;21057;51.024;7.540;2023-04-25T04:08:03;7.20;99.90
15455;DHT22;21057;51.024;7.540;2023-04-25T04:10:31;7.20;99.90
15455;DHT22;21057;51.024;7.540;2023-04-25T04:12:58;7.30;99.90
15455;DHT22;21057;51.024;7.540;2023-04-25T04:15:24;7.20;99.90
15455;DHT22;21057;51.024;7.540;2023-04-25T04:17:51;7.20;99.90
15455;DHT22;21057;51.024;7.540;2023-04-25T04:20:19;7.10;99.90
15455;DHT22;21057;51.024;7.540;2023-04-25T04:22:46;7.00;99.90
15455;DHT22;21057;51.024;7.540;2023-04-25T04:25:14;7.10;99.90
15455;DHT22;21057;51.024;7.540;2023-04-25T04:27:42;7.20;99.90
15455;DHT22;21057;51.024;7.540;2023-04-25T04:30:11;7.30;99.90
15455;DHT22;21057;51.024;7.540;2023-04-25T04:32:37;7.30;99.90
15455;DHT22;21057;51.024;7.540;2023-04-25T04:35:05;7.40;99.90
15455;DHT22;21057;51.024;7.540;2023-04-25T04:37:33;7.20;99.90
15455;DHT22;21057;51.024;7.540;2023-04-25T04:40:00;7.30;99.90
15455;DHT22;21057;51.024;7.540;2023-04-25T04:42:31;7.30;99.90
15455;DHT22;21057;51.024;7.540;2023-04-25T04:45:21;7.30;99.90
15455;DHT22;21057;51.024;7.540;2023-04-25T04:47:49;7.30;99.90
15455;DHT22;21057;51.024;7.540;2023-04-25T04:50:16;7.30;99.90
15455;DHT22;21057;51.024;7.540;2023-04-25T04:52:43;7.30;99.90
15455;DHT22;21057;51.024;7.540;2023-04-25T04:55:10;7.40;99.90
15455;DHT22;21057;51.024;7.540;2023-04-25T04:57:37;7.40;99.90
15455;DHT22;21057;51.024;7.540;2023-04-25T05:00:06;7.50;99.90
15455;DHT22;21057;51.024;7.540;2023-04-25T05:02:38;7.60;99.90
15455;DHT22;21057;51.024;7.540;2023-04-25T05:05:05;7.60;99.90
15455;DHT22;21057;51.024;7.540;2023-04-25T05:07:33;7.60;99.90
15455;DHT22;21057;51.024;7.540;2023-04-25T05:10:17;7.50;99.90
15455;DHT22;21057;51.024;7.540;2023-04-25T05:12:44;7.50;99.90
15455;DHT22;21057;51.024;7.540;2023-04-25T05:15:11;7.30;99.90
15455;DHT22;21057;51.024;7.540;2023-04-25T05:17:39;7.40;99.90
15455;DHT22;21057;51.024;7.540;2023-04-25T05:20:14;7.60;99.90
15455;DHT22;21057;51.024;7.540;2023-04-25T05:22:41;7.80;99.90
15455;DHT22;21057;51.024;7.540;2023-04-25T05:25:09;7.70;99.90
15455;DHT22;21057;51.024;7.540;2023-04-25T05:27:36;7.60;99.90
15455;DHT22;21057;51.024;7.540;2023-04-25T05:30:03;7.30;99.90
15455;DHT22;21057;51.024;7.540;2023-04-25T05:32:31;7.20;99.90
15455;DHT22;21057;51.024;7.540;2023-04-25T05:34:59;7.40;99.90
15455;DHT22;21057;51.024;7.540;2023-04-25T05:37:26;7.70;99.90
15455;DHT22;21057;51.024;7.540;2023-04-25T05:39:54;7.90;99.90
15455;DHT22;21057;51.024;7.540;2023-04-25T05:42:21;7.80;99.90
15455;DHT22;21057;51.024;7.540;2023-04-25T05:44:48;7.90;99.90
15455;DHT22;21057;51.024;7.540;2023-04-25T05:47:16;8.00;99.90
15455;DHT22;21057;51.024;7.540;2023-04-25T05:49:43;8.10;99.90
15455;DHT22;21057;51.024;7.540;2023-04-25T05:52:11;8.20;99.90
15455;DHT22;21057;51.024;7.540;2023-04-25T05:54:38;8.30;99.90
15455;DHT22;21057;51.024;7.540;2023-04-25T05:57:06;7.80;99.90
15455;DHT22;21057;51.024;7.540;2023-04-25T05:59:32;8.00;99.90
15455;DHT22;21057;51.024;7.540;2023-04-25T06:01:59;8.20;99.90
15455;DHT22;21057;51.024;7.540;2023-04-25T06:04:39;8.20;99.90
15455;DHT22;21057;51.024;7.540;2023-04-25T06:07:06;8.10;99.90
15455;DHT22;21057;51.024;7.540;2023-04-25T06:09:36;8.20;99.90
15455;DHT22;21057;51.024;7.540;2023-04-25T06:12:04;8.10;99.90
15455;DHT22;21057;51.024;7.540;2023-04-25T06:14:31;8.10;99.90
15455;DHT22;21057;51.024;7.540;2023-04-25T06:16:58;8.00;99.90
15455;DHT22;21057;51.024;7.540;2023-04-25T06:19:31;8.20;99.90
15455;DHT22;21057;51.024;7.540;2023-04-25T06:21:58;8.20;99.90
15455;DHT22;21057;51.024;7.540;2023-04-25T06:24:25;8.40;99.90
15455;DHT22;21057;51.024;7.540;2023-04-25T06:26:53;8.40;99.90
15455;DHT22;21057;51.024;7.540;2023-04-25T06:29:21;8.40;99.90
15455;DHT22;21057;51.024;7.540;2023-04-25T06:31:47;8.40;99.90
15455;DHT22;21057;51.024;7.540;2023-04-25T06:34:14;8.40;99.90
15455;DHT22;21057;51.024;7.540;2023-04-25T06:36:49;8.40;99.90
15455;DHT22;21057;51.024;7.540;2023-04-25T06:39:18;8.00;99.90
15455;DHT22;21057;51.024;7.540;2023-04-25T06:41:53;7.80;99.90
15455;DHT22;21057;51.024;7.540;2023-04-25T06:44:26;7.50;99.90
15455;DHT22;21057;51.024;7.540;2023-04-25T06:47:01;7.30;99.90
15455;DHT22;21057;51.024;7.540;2023-04-25T06:49:28;7.20;99.90
15455;DHT22;21057;51.024;7.540;2023-04-25T06:51:57;7.40;99.90
15455;DHT22;21057;51.024;7.540;2023-04-25T06:54:31;7.60;99.90
15455;DHT22;21057;51.024;7.540;2023-04-25T06:56:59;8.00;99.90
15455;DHT22;21057;51.024;7.540;2023-04-25T06:59:26;8.50;99.90
15455;DHT22;21057;51.024;7.540;2023-04-25T07:01:53;8.60;99.90
15455;DHT22;21057;51.024;7.540;2023-04-25T07:04:29;8.90;99.90
15455;DHT22;21057;51.024;7.540;2023-04-25T07:06:57;9.30;99.90
15455;DHT22;21057;51.024;7.540;2023-04-25T07:09:25;9.50;99.90
15455;DHT22;21057;51.024;7.540;2023-04-25T07:12:02;9.60;99.90
15455;DHT22;21057;51.024;7.540;2023-04-25T07:14:29;9.70;99.90
15455;DHT22;21057;51.024;7.540;2023-04-25T07:16:57;9.50;99.90
15455;DHT22;21057;51.024;7.540;2023-04-25T07:19:25;9.30;99.90
15455;DHT22;21057;51.024;7.540;2023-04-25T07:21:58;9.20;99.90
15455;DHT22;21057;51.024;7.540;2023-04-25T07:24:24;9.40;99.90
15455;DHT22;21057;51.024;7.540;2023-04-25T07:26:51;9.40;99.90
15455;DHT22;21057;51.024;7.540;2023-04-25T07:29:27;9.30;99.90
15455;DHT22;21057;51.024;7.540;2023-04-25T07:31:57;9.40;99.90
15455;DHT22;21057;51.024;7.540;2023-04-25T07:34:24;9.60;99.90
15455;DHT22;21057;51.024;7.540;2023-04-25T07:36:59;10.20;99.90
15455;DHT22;21057;51.024;7.540;2023-04-25T07:39:33;11.30;99.90
15455;DHT22;21057;51.024;7.540;2023-04-25T07:42:04;11.30;99.90
15455;DHT22;21057;51.024;7.540;2023-04-25T07:44:39;11.80;99.90
15455;DHT22;21057;51.024;7.540;2023-04-25T07:47:10;12.00;99.90
15455;DHT22;21057;51.024;7.540;2023-04-25T07:49:53;10.90;99.90
15455;DHT22;21057;51.024;7.540;2023-04-25T07:52:22;10.50;99.90
15455;DHT22;21057;51.024;7.540;2023-04-25T07:54:50;10.20;99.90
15455;DHT22;21057;51.024;7.540;2023-04-25T07:57:17;10.20;99.90
15455;DHT22;21057;51.024;7.540;2023-04-25T07:59:47;9.60;99.90
15455;DHT22;21057;51.024;7.540;2023-04-25T08:02:29;9.40;99.90
15455;DHT22;21057;51.024;7.540;2023-04-25T08:04:56;9.20;99.90
15455;DHT22;21057;51.024;7.540;2023-04-25T08:07:29;9.40;99.90
15455;DHT22;21057;51.024;7.540;2023-04-25T08:10:06;9.40;99.90
15455;DHT22;21057;51.024;7.540;2023-04-25T08:12:33;9.70;99.90
15455;DHT22;21057;51.024;7.540;2023-04-25T08:15:05;9.90;99.90
15455;DHT22;21057;51.024;7.540;2023-04-25T08:17:32;10.10;99.90
15455;DHT22;21057;51.024;7.540;2023-04-25T08:20:00;9.90;99.90
15455;DHT22;21057;51.024;7.540;2023-04-25T08:22:30;10.40;99.90
15455;DHT22;21057;51.024;7.540;2023-04-25T08:25:06;10.50;99.90
15455;DHT22;21057;51.024;7.540;2023-04-25T08:27:44;10.60;99.90
15455;DHT22;21057;51.024;7.540;2023-04-25T08:30:14;10.60;99.90
15455;DHT22;21057;51.024;7.540;2023-04-25T08:32:40;10.40;99.90
15455;DHT22;21057;51.024;7.540;2023-04-25T08:35:08;10.50;99.90
15455;DHT22;21057;51.024;7.540;2023-04-25T08:37:46;10.30;99.90
15455;DHT22;21057;51.024;7.540;2023-04-25T08:40:16;10.00;99.90
15455;DHT22;21057;51.024;7.540;2023-04-25T08:42:43;10.00;99.90
15455;DHT22;21057;51.024;7.540;2023-04-25T08:45:14;9.90;99.90
15455;DHT22;21057;51.024;7.540;2023-04-25T08:47:43;9.90;99.90
15455;DHT22;21057;51.024;7.540;2023-04-25T08:50:11;9.70;99.90
15455;DHT22;21057;51.024;7.540;2023-04-25T08:52:44;9.30;99.90
15455;DHT22;21057;51.024;7.540;2023-04-25T08:55:13;9.20;99.90
15455;DHT22;21057;51.024;7.540;2023-04-25T08:57:41;8.90;99.90
15455;DHT22;21057;51.024;7.540;2023-04-25T09:00:10;8.50;99.90
15455;DHT22;21057;51.024;7.540;2023-04-25T09:02:39;8.50;99.90
15455;DHT22;21057;51.024;7.540;2023-04-25T09:05:06;8.40;99.90
15455;DHT22;21057;51.024;7.540;2023-04-25T09:07:35;8.40;99.90
15455;DHT22;21057;51.024;7.540;2023-04-25T09:10:09;8.30;99.90
15455;DHT22;21057;51.024;7.540;2023-04-25T09:12:43;8.30;99.90
15455;DHT22;21057;51.024;7.540;2023-04-25T09:15:17;8.40;99.90
15455;DHT22;21057;51.024;7.540;2023-04-25T09:17:46;8.70;99.90
15455;DHT22;21057;51.024;7.540;2023-04-25T09:20:14;8.80;99.90
15455;DHT22;21057;51.024;7.540;2023-04-25T09:22:42;8.70;99.90
15455;DHT22;21057;51.024;7.540;2023-04-25T09:28:07;9.10;99.90
15455;DHT22;21057;51.024;7.540;2023-04-25T09:30:38;10.00;99.90
15455;DHT22;21057;51.024;7.540;2023-04-25T09:33:09;11.60;99.90
15455;DHT22;21057;51.024;7.540;2023-04-25T09:35:37;13.00;99.90
15455;DHT22;21057;51.024;7.540;2023-04-25T09:38:18;12.80;99.90
15455;DHT22;21057;51.024;7.540;2023-04-25T09:40:48;13.00;99.90
15455;DHT22;21057;51.024;7.540;2023-04-25T09:43:23;12.60;99.90
15455;DHT22;21057;51.024;7.540;2023-04-25T09:46:00;12.00;99.90
15455;DHT22;21057;51.024;7.540;2023-04-25T09:48:29;11.60;99.90
15455;DHT22;21057;51.024;7.540;2023-04-25T09:51:06;10.90;99.90
15455;DHT22;21057;51.024;7.540;2023-04-25T09:53:34;10.00;99.90
15455;DHT22;21057;51.024;7.540;2023-04-25T09:56:04;9.90;99.90
15455;DHT22;21057;51.024;7.540;2023-04-25T09:58:34;10.20;99.90
15455;DHT22;21057;51.024;7.540;2023-04-25T10:01:05;10.60;99.90
15455;DHT22;21057;51.024;7.540;2023-04-25T10:03:35;10.90;99.90
15455;DHT22;21057;51.024;7.540;2023-04-25T10:06:12;11.20;99.90
15455;DHT22;21057;51.024;7.540;2023-04-25T10:08:53;11.20;99.90
15455;DHT22;21057;51.024;7.540;2023-04-25T10:11:24;10.80;99.90
15455;DHT22;21057;51.024;7.540;2023-04-25T10:13:53;10.50;99.90
15455;DHT22;21057;51.024;7.540;2023-04-25T10:16:21;10.20;99.90
15455;DHT22;21057;51.024;7.540;2023-04-25T10:18:50;10.00;99.90
15455;DHT22;21057;51.024;7.540;2023-04-25T10:21:18;9.90;99.90
15455;DHT22;21057;51.024;7.540;2023-04-25T10:23:46;9.80;99.90
15455;DHT22;21057;51.024;7.540;2023-04-25T10:26:13;9.90;99.90
15455;DHT22;21057;51.024;7.540;2023-04-25T10:28:56;9.60;99.90
15455;DHT22;21057;51.024;7.540;2023-04-25T10:31:25;10.10;99.90
15455;DHT22;21057;51.024;7.540;2023-04-25T10:33:54;10.00;99.90
15455;DHT22;21057;51.024;7.540;2023-04-25T10:36:23;10.00;99.90
15455;DHT22;21057;51.024;7.540;2023-04-25T10:38:53;9.90;99.90
15455;DHT22;21057;51.024;7.540;2023-04-25T10:41:22;10.00;99.90
15455;DHT22;21057;51.024;7.540;2023-04-25T10:43:59;10.40;99.90
15455;DHT22;21057;51.024;7.540;2023-04-25T10:46:29;10.70;98.80
15455;DHT22;21057;51.024;7.540;2023-04-25T10:49:00;11.90;99.90
15455;DHT22;21057;51.024;7.540;2023-04-25T10:51:28;12.50;99.10
15455;DHT22;21057;51.024;7.540;2023-04-25T10:54:00;11.80;96.80
15455;DHT22;21057;51.024;7.540;2023-04-25T10:56:29;10.80;99.50
15455;DHT22;21057;51.024;7.540;2023-04-25T10:59:07;10.10;99.90
15455;DHT22;21057;51.024;7.540;2023-04-25T11:01:39;10.10;99.90
15455;DHT22;21057;51.024;7.540;2023-04-25T11:04:25;10.20;99.90
15455;DHT22;21057;51.024;7.540;2023-04-25T11:07:03;10.30;99.90
15455;DHT22;21057;51.024;7.540;2023-04-25T11:09:34;10.40;99.90
15455;DHT22;21057;51.024;7.540;2023-04-25T11:12:01;10.50;99.90
15455;DHT22;21057;51.024;7.540;2023-04-25T11:14:31;10.90;99.90
15455;DHT22;21057;51.024;7.540;2023-04-25T11:16:58;11.40;99.90
15455;DHT22;21057;51.024;7.540;2023-04-25T11:19:28;12.00;98.90
15455;DHT22;21057;51.024;7.540;2023-04-25T11:21:55;12.70;99.30
15455;DHT22;21057;51.024;7.540;2023-04-25T11:24:26;13.50;96.70
15455;DHT22;21057;51.024;7.540;2023-04-25T11:26:56;14.30;95.60
15455;DHT22;21057;51.024;7.540;2023-04-25T11:29:27;14.40;92.20
15455;DHT22;21057;51.024;7.540;2023-04-25T11:32:07;13.90;94.00
15455;DHT22;21057;51.024;7.540;2023-04-25T11:34:43;13.10;94.70
15455;DHT22;21057;51.024;7.540;2023-04-25T11:37:11;12.80;94.40
15455;DHT22;21057;51.024;7.540;2023-04-25T11:39:44;12.40;94.10
15455;DHT22;21057;51.024;7.540;2023-04-25T11:42:12;11.70;95.00
15455;DHT22;21057;51.024;7.540;2023-04-25T11:44:47;11.10;98.00
15455;DHT22;21057;51.024;7.540;2023-04-25T11:47:14;10.30;99.90
15455;DHT22;21057;51.024;7.540;2023-04-25T11:49:42;10.10;99.90
15455;DHT22;21057;51.024;7.540;2023-04-25T11:52:15;10.30;99.90
15455;DHT22;21057;51.024;7.540;2023-04-25T11:54:48;10.60;99.90
15455;DHT22;21057;51.024;7.540;2023-04-25T11:57:19;10.80;99.90
15455;DHT22;21057;51.024;7.540;2023-04-25T11:59:47;11.00;99.90
15455;DHT22;21057;51.024;7.540;2023-04-25T12:02:24;11.30;99.90
15455;DHT22;21057;51.024;7.540;2023-04-25T12:04:59;12.10;99.90
15455;DHT22;21057;51.024;7.540;2023-04-25T12:07:31;12.90;98.30
15455;DHT22;21057;51.024;7.540;2023-04-25T12:10:05;13.60;96.80
15455;DHT22;21057;51.024;7.540;2023-04-25T12:12:43;14.60;96.30
15455;DHT22;21057;51.024;7.540;2023-04-25T12:15:13;15.70;90.70
15455;DHT22;21057;51.024;7.540;2023-04-25T12:17:44;16.80;87.50
15455;DHT22;21057;51.024;7.540;2023-04-25T12:20:14;17.30;80.70
15455;DHT22;21057;51.024;7.540;2023-04-25T12:22:43;16.40;80.80
15455;DHT22;21057;51.024;7.540;2023-04-25T12:25:36;15.10;82.20
15455;DHT22;21057;51.024;7.540;2023-04-25T12:28:13;13.60;83.40
15455;DHT22;21057;51.024;7.540;2023-04-25T12:30:54;12.50;83.60
15455;DHT22;21057;51.024;7.540;2023-04-25T12:33:30;11.80;88.50
15455;DHT22;21057;51.024;7.540;2023-04-25T12:36:02;12.10;90.30
15455;DHT22;21057;51.024;7.540;2023-04-25T12:38:36;12.10;90.20
15455;DHT22;21057;51.024;7.540;2023-04-25T12:41:05;12.00;90.80
15455;DHT22;21057;51.024;7.540;2023-04-25T12:43:32;11.80;91.20
15455;DHT22;21057;51.024;7.540;2023-04-25T12:45:59;11.60;92.60
15455;DHT22;21057;51.024;7.540;2023-04-25T12:48:26;11.30;91.60
15455;DHT22;21057;51.024;7.540;2023-04-25T12:50:57;11.20;91.00
15455;DHT22;21057;51.024;7.540;2023-04-25T12:53:25;11.50;94.30
15455;DHT22;21057;51.024;7.540;2023-04-25T12:55:52;11.30;94.30
15455;DHT22;21057;51.024;7.540;2023-04-25T12:58:22;11.00;96.30
15455;DHT22;21057;51.024;7.540;2023-04-25T13:00:50;10.70;98.00
15455;DHT22;21057;51.024;7.540;2023-04-25T13:03:17;11.60;98.10
15455;DHT22;21057;51.024;7.540;2023-04-25T13:05:44;12.20;97.00
15455;DHT22;21057;51.024;7.540;2023-04-25T13:08:14;12.70;93.40
15455;DHT22;21057;51.024;7.540;2023-04-25T13:10:42;12.60;94.60
15455;DHT22;21057;51.024;7.540;2023-04-25T13:13:09;12.40;95.80
15455;DHT22;21057;51.024;7.540;2023-04-25T13:15:37;12.20;95.90
15455;DHT22;21057;51.024;7.540;2023-04-25T13:18:04;11.80;93.70
15455;DHT22;21057;51.024;7.540;2023-04-25T13:20:31;12.20;96.60
15455;DHT22;21057;51.024;7.540;2023-04-25T13:23:01;12.70;96.70
15455;DHT22;21057;51.024;7.540;2023-04-25T13:25:28;12.90;94.90
15455;DHT22;21057;51.024;7.540;2023-04-25T13:27:56;12.60;93.00
15455;DHT22;21057;51.024;7.540;2023-04-25T13:30:31;12.60;92.00
15455;DHT22;21057;51.024;7.540;2023-04-25T13:32:58;11.70;94.40
15455;DHT22;21057;51.024;7.540;2023-04-25T13:35:29;12.40;95.30
15455;DHT22;21057;51.024;7.540;2023-04-25T13:37:57;13.30;94.80
15455;DHT22;21057;51.024;7.540;2023-04-25T13:40:34;13.50;92.10
15455;DHT22;21057;51.024;7.540;2023-04-25T13:43:04;13.90;92.10
15455;DHT22;21057;51.024;7.540;2023-04-25T13:45:36;14.50;91.10
15455;DHT22;21057;51.024;7.540;2023-04-25T13:48:09;14.70;91.60
15455;DHT22;21057;51.024;7.540;2023-04-25T13:50:37;14.90;93.40
15455;DHT22;21057;51.024;7.540;2023-04-25T13:53:10;14.50;90.20
15455;DHT22;21057;51.024;7.540;2023-04-25T13:55:37;13.30;91.30
15455;DHT22;21057;51.024;7.540;2023-04-25T13:58:05;12.70;93.40
15455;DHT22;21057;51.024;7.540;2023-04-25T14:00:36;12.30;94.40
15455;DHT22;21057;51.024;7.540;2023-04-25T14:03:04;11.50;94.40
15455;DHT22;21057;51.024;7.540;2023-04-25T14:05:33;11.20;97.60
15455;DHT22;21057;51.024;7.540;2023-04-25T14:08:04;11.10;97.50
15455;DHT22;21057;51.024;7.540;2023-04-25T14:10:31;10.60;99.90
15455;DHT22;21057;51.024;7.540;2023-04-25T14:12:58;10.20;99.90
15455;DHT22;21057;51.024;7.540;2023-04-25T14:15:35;10.30;99.90
15455;DHT22;21057;51.024;7.540;2023-04-25T14:18:02;10.40;99.90
15455;DHT22;21057;51.024;7.540;2023-04-25T14:20:29;10.40;99.90
15455;DHT22;21057;51.024;7.540;2023-04-25T14:22:57;10.70;99.90
15455;DHT22;21057;51.024;7.540;2023-04-25T14:25:24;11.00;99.90
15455;DHT22;21057;51.024;7.540;2023-04-25T14:27:51;11.50;99.90
15455;DHT22;21057;51.024;7.540;2023-04-25T14:30:29;11.90;99.90
15455;DHT22;21057;51.024;7.540;2023-04-25T14:33:16;12.30;99.00
15455;DHT22;21057;51.024;7.540;2023-04-25T14:35:44;12.60;97.20
15455;DHT22;21057;51.024;7.540;2023-04-25T14:38:11;12.70;98.00
15455;DHT22;21057;51.024;7.540;2023-04-25T14:40:37;13.00;96.10
15455;DHT22;21057;51.024;7.540;2023-04-25T14:43:04;13.10;96.00
15455;DHT22;21057;51.024;7.540;2023-04-25T14:45:31;13.40;94.60
15455;DHT22;21057;51.024;7.540;2023-04-25T14:47:58;12.80;92.30
15455;DHT22;21057;51.024;7.540;2023-04-25T14:50:27;13.00;93.70
15455;DHT22;21057;51.024;7.540;2023-04-25T14:52:54;13.00;92.90
15455;DHT22;21057;51.024;7.540;2023-04-25T14:55:28;12.40;93.10
15455;DHT22;21057;51.024;7.540;2023-04-25T14:58:02;12.20;94.20
15455;DHT22;21057;51.024;7.540;2023-04-25T15:00:54;12.20;95.00
15455;DHT22;21057;51.024;7.540;2023-04-25T15:03:22;12.00;94.10
15455;DHT22;21057;51.024;7.540;2023-04-25T15:06:00;11.50;94.30
15455;DHT22;21057;51.024;7.540;2023-04-25T15:08:27;11.20;97.90
15455;DHT22;21057;51.024;7.540;2023-04-25T15:11:04;10.80;99.80
15455;DHT22;21057;51.024;7.540;2023-04-25T15:13:37;10.00;99.90
15455;DHT22;21057;51.024;7.540;2023-04-25T15:16:04;9.50;99.90
15455;DHT22;21057;51.024;7.540;2023-04-25T15:18:32;9.20;99.90
15455;DHT22;21057;51.024;7.540;2023-04-25T15:21:02;8.80;99.90
15455;DHT22;21057;51.024;7.540;2023-04-25T15:23:32;8.10;99.90
15455;DHT22;21057;51.024;7.540;2023-04-25T15:26:02;8.10;99.90
15455;DHT22;21057;51.024;7.540;2023-04-25T15:28:29;8.40;99.90
15455;DHT22;21057;51.024;7.540;2023-04-25T15:31:00;8.70;99.90
15455;DHT22;21057;51.024;7.540;2023-04-25T15:33:43;8.90;99.90
15455;DHT22;21057;51.024;7.540;2023-04-25T15:36:11;9.10;99.90
15455;DHT22;21057;51.024;7.540;2023-04-25T15:38:38;9.40;99.90
15455;DHT22;21057;51.024;7.540;2023-04-25T15:41:05;9.60;99.90
15455;DHT22;21057;51.024;7.540;2023-04-25T15:43:32;9.80;99.90
15455;DHT22;21057;51.024;7.540;2023-04-25T15:46:04;10.00;99.90
15455;DHT22;21057;51.024;7.540;2023-04-25T15:48:31;9.80;99.90
15455;DHT22;21057;51.024;7.540;2023-04-25T15:51:01;9.90;99.90
15455;DHT22;21057;51.024;7.540;2023-04-25T15:53:29;9.80;99.90
15455;DHT22;21057;51.024;7.540;2023-04-25T15:55:56;10.00;99.90
15455;DHT22;21057;51.024;7.540;2023-04-25T15:58:34;10.10;99.90